createdAt,value
2018-05-06T00:01:36.307Z,11.61
2018-05-06T00:13:12.860Z,11.49
2018-05-06T00:15:40.414Z,11.45
2018-05-06T00:18:08.209Z,11.42
2018-05-06T00:29:42.699Z,11.41
2018-05-06T00:32:10.429Z,11.40
2018-05-06T00:34:38.300Z,11.41
2018-05-06T00:46:15.441Z,11.26
2018-05-06T00:48:43.112Z,11.23
2018-05-06T00:51:10.760Z,11.19
2018-05-06T00:53:38.639Z,11.16
2018-05-06T01:05:14.613Z,11.11
2018-05-06T01:07:42.391Z,11.09
2018-05-06T01:10:09.951Z,11.01
2018-05-06T01:21:46.605Z,10.91
2018-05-06T01:24:14.344Z,10.87
2018-05-06T01:26:42.048Z,10.85
2018-05-06T01:38:18.260Z,10.83
2018-05-06T01:40:45.835Z,10.79
2018-05-06T01:43:13.547Z,10.74
2018-05-06T01:54:49.973Z,10.73
2018-05-06T01:57:18.583Z,10.70
2018-05-06T01:59:46.341Z,10.69
2018-05-06T02:11:28.028Z,10.75
2018-05-06T02:13:55.668Z,10.76
2018-05-06T02:16:23.295Z,10.78
2018-05-06T02:18:50.967Z,10.79
2018-05-06T02:30:27.145Z,10.64
2018-05-06T02:32:54.852Z,10.59
2018-05-06T02:35:22.484Z,10.51
2018-05-06T02:46:58.451Z,10.28
2018-05-06T02:49:26.044Z,10.28
2018-05-06T02:51:53.737Z,10.32
2018-05-06T03:03:30.812Z,10.37
2018-05-06T03:05:58.507Z,10.39
2018-05-06T03:08:26.275Z,10.36
2018-05-06T03:20:02.574Z,10.26
2018-05-06T03:22:30.364Z,10.23
2018-05-06T03:24:58.085Z,10.25
2018-05-06T03:36:41.982Z,10.28
2018-05-06T03:39:09.623Z,10.31
2018-05-06T03:41:37.147Z,10.31
2018-05-06T03:44:04.828Z,10.31
2018-05-06T03:55:41.207Z,10.35
2018-05-06T03:58:21.615Z,10.31
2018-05-06T04:00:49.285Z,10.29
2018-05-06T04:12:33.279Z,10.28
2018-05-06T04:15:00.874Z,10.26
2018-05-06T04:17:28.533Z,10.25
2018-05-06T04:28:54.236Z,10.22
2018-05-06T04:31:21.849Z,10.20
2018-05-06T04:33:49.470Z,10.17
2018-05-06T04:45:25.947Z,10.19
2018-05-06T04:47:53.537Z,10.19
2018-05-06T04:50:21.213Z,10.17
2018-05-06T04:52:49.465Z,10.14
2018-05-06T05:04:25.504Z,10.04
2018-05-06T05:06:53.093Z,10.05
2018-05-06T05:09:20.940Z,10.03
2018-05-06T05:20:57.026Z,10.01
2018-05-06T05:23:24.599Z,10.00
2018-05-06T05:25:52.245Z,9.98
2018-05-06T05:37:27.996Z,10.04
2018-05-06T05:39:55.659Z,10.06
2018-05-06T05:42:23.320Z,10.08
2018-05-06T05:53:59.407Z,9.99
2018-05-06T05:56:27.107Z,10.00
2018-05-06T05:58:54.842Z,10.06
2018-05-06T06:12:57.428Z,10.26
2018-05-06T06:15:25.023Z,10.30
2018-05-06T06:17:52.890Z,10.36
2018-05-06T06:29:29.144Z,10.56
2018-05-06T06:31:56.836Z,10.59
2018-05-06T06:34:24.715Z,10.61
2018-05-06T06:45:42.987Z,10.73
2018-05-06T06:48:10.549Z,10.77
2018-05-06T06:50:38.588Z,10.80
2018-05-06T07:02:15.503Z,10.86
2018-05-06T07:04:43.093Z,10.91
2018-05-06T07:07:10.763Z,10.99
2018-05-06T07:09:43.227Z,11.08
2018-05-06T07:20:49.427Z,11.45
2018-05-06T07:23:17.001Z,11.50
2018-05-06T07:25:45.796Z,11.56
2018-05-06T07:37:22.227Z,12.02
2018-05-06T07:39:50.123Z,12.13
2018-05-06T07:42:17.759Z,12.21
2018-05-06T07:53:53.099Z,12.45
2018-05-06T07:56:21.713Z,12.46
2018-05-06T07:58:49.565Z,12.49
2018-05-06T08:10:24.071Z,12.79
2018-05-06T08:12:51.653Z,12.88
2018-05-06T08:15:19.537Z,12.98
2018-05-06T08:17:47.235Z,13.04
2018-05-06T08:29:23.777Z,13.17
2018-05-06T08:31:51.487Z,13.23
2018-05-06T08:34:19.097Z,13.30
2018-05-06T08:45:55.607Z,13.45
2018-05-06T08:48:23.207Z,13.50
2018-05-06T08:50:51.196Z,13.51
2018-05-06T08:56:11.119Z,13.59
2018-05-06T09:01:33.973Z,13.71
2018-05-06T09:04:01.619Z,13.75
2018-05-06T09:06:29.250Z,13.81
2018-05-06T09:15:04.230Z,14.05
2018-05-06T09:20:35.652Z,14.19
2018-05-06T09:23:03.495Z,14.21
2018-05-06T09:25:31.243Z,14.23
2018-05-06T09:36:47.864Z,14.35
2018-05-06T09:39:15.632Z,14.41
2018-05-06T09:41:43.219Z,14.50
2018-05-06T09:44:13.108Z,14.61
2018-05-06T09:53:01.955Z,14.87
2018-05-06T09:55:29.644Z,14.90
2018-05-06T09:57:57.187Z,14.93
2018-05-06T10:00:25.160Z,14.95
2018-05-06T10:05:29.545Z,14.98
2018-05-06T10:08:01.313Z,14.99
2018-05-06T10:10:29.030Z,15.01
2018-05-06T10:12:56.588Z,15.03
2018-05-06T10:15:24.181Z,14.99
2018-05-06T10:17:52.099Z,15.04
2018-05-06T10:28:48.221Z,15.15
2018-05-06T10:31:15.917Z,15.18
2018-05-06T10:33:43.740Z,15.23
2018-05-06T10:36:14.448Z,15.30
2018-05-06T10:43:58.118Z,15.42
2018-05-06T10:46:25.840Z,15.41
2018-05-06T10:48:53.475Z,15.43
2018-05-06T10:51:21.127Z,15.48
2018-05-06T10:56:29.096Z,15.61
2018-05-06T11:01:33.661Z,15.84
2018-05-06T11:04:01.487Z,15.92
2018-05-06T11:06:28.979Z,16.04
2018-05-06T11:08:56.650Z,16.14
2018-05-06T11:19:12.172Z,16.55
2018-05-06T11:21:39.867Z,16.57
2018-05-06T11:24:07.423Z,16.64
2018-05-06T11:26:35.102Z,16.70
2018-05-06T11:29:03.005Z,16.78
2018-05-06T11:31:33.089Z,16.88
2018-05-06T11:36:37.215Z,16.92
2018-05-06T11:39:04.819Z,17.00
2018-05-06T11:41:32.656Z,17.07
2018-05-06T11:44:00.348Z,17.10
2018-05-06T11:46:37.464Z,17.17
2018-05-06T11:51:45.289Z,17.40
2018-05-06T11:54:12.944Z,17.47
2018-05-06T11:56:40.744Z,17.62
2018-05-06T11:59:08.423Z,17.78
2018-05-06T12:01:36.170Z,17.98
2018-05-06T12:09:26.661Z,18.53
2018-05-06T12:11:54.373Z,18.69
2018-05-06T12:14:22.021Z,18.85
2018-05-06T12:16:49.633Z,18.98
2018-05-06T12:28:05.384Z,19.63
2018-05-06T12:30:32.937Z,19.68
2018-05-06T12:33:00.443Z,19.83
2018-05-06T12:35:28.059Z,19.97
2018-05-06T12:47:11.862Z,20.36
2018-05-06T12:49:39.493Z,20.45
2018-05-06T12:52:07.167Z,20.52
2018-05-06T12:54:54.377Z,20.40
2018-05-06T13:02:52.252Z,20.37
2018-05-06T13:05:19.977Z,20.43
2018-05-06T13:07:47.563Z,20.60
2018-05-06T13:10:15.230Z,20.71
2018-05-06T13:21:51.338Z,21.03
2018-05-06T13:24:19.255Z,20.99
2018-05-06T13:26:48.347Z,20.91
2018-05-06T13:32:19.000Z,20.81
2018-05-06T13:35:00.367Z,20.82
2018-05-06T13:37:27.935Z,20.79
2018-05-06T13:39:55.562Z,20.87
2018-05-06T13:42:23.107Z,20.95
2018-05-06T13:44:50.604Z,21.01
2018-05-06T13:50:20.617Z,20.81
2018-05-06T13:52:48.231Z,20.87
2018-05-06T13:55:15.782Z,20.99
2018-05-06T13:57:43.408Z,21.10
2018-05-06T14:00:11.060Z,21.23
2018-05-06T14:14:19.743Z,21.41
2018-05-06T14:16:47.235Z,21.51
2018-05-06T14:19:14.759Z,21.59
2018-05-06T14:27:50.265Z,21.69
2018-05-06T14:31:54.204Z,21.38
2018-05-06T14:34:21.729Z,21.36
2018-05-06T14:36:49.309Z,21.40
2018-05-06T14:39:17.513Z,21.33
2018-05-06T14:41:46.159Z,21.36
2018-05-06T14:44:15.897Z,21.49
2018-05-06T14:46:55.388Z,21.57
2018-05-06T14:49:22.980Z,21.62
2018-05-06T14:51:50.610Z,21.57
2018-05-06T14:54:18.399Z,21.46
2018-05-06T14:56:49.623Z,21.30
2018-05-06T14:59:22.133Z,21.24
2018-05-06T15:01:52.938Z,21.26
2018-05-06T15:04:20.595Z,21.15
2018-05-06T15:06:48.202Z,21.05
2018-05-06T15:09:15.809Z,21.11
2018-05-06T15:11:43.651Z,20.90
2018-05-06T15:14:13.120Z,20.59
2018-05-06T15:16:44.498Z,20.55
2018-05-06T15:19:14.134Z,20.52
2018-05-06T15:21:41.690Z,20.72
2018-05-06T15:24:09.294Z,20.80
2018-05-06T15:26:36.962Z,20.85
2018-05-06T15:29:04.610Z,20.96
2018-05-06T15:31:33.946Z,20.91
2018-05-06T15:34:02.635Z,20.88
2018-05-06T15:36:30.395Z,20.89
2018-05-06T15:38:57.985Z,20.78
2018-05-06T15:41:25.610Z,20.71
2018-05-06T15:43:53.089Z,20.72
2018-05-06T15:46:21.045Z,20.91
2018-05-06T15:48:49.049Z,20.93
2018-05-06T15:51:17.257Z,20.96
2018-05-06T15:53:45.479Z,21.16
2018-05-06T15:56:13.144Z,21.25
2018-05-06T15:58:40.693Z,21.38
2018-05-06T16:01:08.420Z,21.49
2018-05-06T16:03:47.990Z,21.51
2018-05-06T16:06:15.658Z,21.82
2018-05-06T16:08:46.218Z,22.12
2018-05-06T16:11:15.055Z,22.42
2018-05-06T16:13:42.600Z,22.73
2018-05-06T16:16:10.240Z,22.86
2018-05-06T16:18:37.802Z,22.90
2018-05-06T16:21:05.455Z,23.16
2018-05-06T16:23:33.862Z,23.49
2018-05-06T16:26:02.372Z,23.62
2018-05-06T16:28:31.260Z,23.53
2018-05-06T16:30:58.855Z,23.42
2018-05-06T16:33:26.537Z,23.14
2018-05-06T16:35:54.091Z,22.93
2018-05-06T16:38:21.945Z,23.03
2018-05-06T16:43:25.960Z,23.18
2018-05-06T16:45:53.892Z,23.17
2018-05-06T16:48:21.455Z,23.39
2018-05-06T16:50:49.071Z,23.52
2018-05-06T16:53:16.631Z,23.78
2018-05-06T16:55:44.207Z,23.94
2018-05-06T16:58:11.831Z,23.99
2018-05-06T17:00:39.488Z,24.01
2018-05-06T17:03:07.172Z,24.16
2018-05-06T17:05:34.731Z,24.13
2018-05-06T17:08:02.393Z,24.01
2018-05-06T17:10:29.914Z,23.99
2018-05-06T17:12:57.593Z,23.75
2018-05-06T17:15:25.339Z,23.54
2018-05-06T17:17:53.008Z,23.38
2018-05-06T17:20:22.931Z,23.18
2018-05-06T17:22:50.499Z,23.14
2018-05-06T17:25:18.059Z,22.98
2018-05-06T17:27:49.604Z,22.66
2018-05-06T17:30:18.623Z,22.47
2018-05-06T17:32:46.495Z,22.47
2018-05-06T17:35:15.016Z,22.73
2018-05-06T17:37:43.581Z,22.71
2018-05-06T17:40:11.227Z,22.70
2018-05-06T17:42:38.746Z,22.65
2018-05-06T17:45:06.410Z,22.42
2018-05-06T17:47:34.096Z,22.15
2018-05-06T17:50:01.876Z,22.02
2018-05-06T17:52:29.600Z,21.99
2018-05-06T17:54:58.137Z,22.06
2018-05-06T17:57:25.778Z,22.01
2018-05-06T17:59:53.351Z,22.09
2018-05-06T18:02:20.859Z,22.25
2018-05-06T18:04:48.479Z,22.11
2018-05-06T18:07:16.188Z,22.04
2018-05-06T18:09:43.896Z,21.96
2018-05-06T18:12:11.496Z,21.94
2018-05-06T18:14:39.124Z,21.97
2018-05-06T18:17:06.907Z,22.02
2018-05-06T18:19:34.637Z,22.06
2018-05-06T18:22:02.214Z,21.90
2018-05-06T18:24:29.896Z,21.74
2018-05-06T18:27:01.449Z,21.71
2018-05-06T18:29:29.166Z,21.59
2018-05-06T18:31:58.431Z,21.34
2018-05-06T18:34:26.024Z,21.04
2018-05-06T18:37:07.763Z,20.61
2018-05-06T18:39:37.470Z,20.17
2018-05-06T18:42:07.761Z,19.77
2018-05-06T18:44:38.555Z,19.33
2018-05-06T18:47:07.387Z,19.04
2018-05-06T18:49:34.959Z,18.75
2018-05-06T18:52:02.697Z,18.49
2018-05-06T18:54:30.420Z,18.22
2018-05-06T18:57:01.349Z,17.93
2018-05-06T18:59:30.194Z,17.74
2018-05-06T19:01:58.095Z,17.57
2018-05-06T19:04:27.475Z,17.42
2018-05-06T19:06:55.381Z,17.31
2018-05-06T19:09:23.005Z,17.13
2018-05-06T19:11:50.725Z,16.82
2018-05-06T19:14:18.579Z,16.48
2018-05-06T19:16:50.902Z,16.21
2018-05-06T19:19:21.373Z,16.11
2018-05-06T19:22:03.335Z,16.04
2018-05-06T19:24:30.890Z,15.98
2018-05-06T19:26:58.394Z,15.89
2018-05-06T19:29:25.903Z,15.77
2018-05-06T19:31:55.216Z,15.65
2018-05-06T19:34:22.963Z,15.53
2018-05-06T19:39:43.151Z,15.38
2018-05-06T19:42:10.724Z,15.33
2018-05-06T19:44:38.214Z,15.27
2018-05-06T19:47:05.747Z,15.13
2018-05-06T19:52:31.456Z,14.87
2018-05-06T19:57:51.544Z,14.79
2018-05-06T20:00:19.064Z,14.79
2018-05-06T20:02:46.662Z,14.73
2018-05-06T20:08:07.079Z,14.66
2018-05-06T20:10:35.629Z,14.63
2018-05-06T20:13:03.309Z,14.56
2018-05-06T20:15:30.849Z,14.47
2018-05-06T20:17:58.380Z,14.38
2018-05-06T20:20:25.899Z,14.28
2018-05-06T20:23:01.363Z,14.18
2018-05-06T20:25:30.917Z,14.13
2018-05-06T20:28:00.818Z,14.12
2018-05-06T20:30:30.264Z,14.11
2018-05-06T20:32:57.823Z,14.11
2018-05-06T20:35:25.475Z,14.10
2018-05-06T20:37:53.077Z,14.09
2018-05-06T20:40:20.753Z,14.04
2018-05-06T20:42:52.680Z,13.96
2018-05-06T20:45:20.386Z,13.94
2018-05-06T20:47:48.032Z,13.91
2018-05-06T20:50:15.554Z,13.86
2018-05-06T20:52:43.135Z,13.84
2018-05-06T20:55:10.737Z,13.80
2018-05-06T20:57:40.243Z,13.77
2018-05-06T21:06:17.548Z,13.83
2018-05-06T21:08:45.056Z,13.80
2018-05-06T21:11:12.581Z,13.77
2018-05-06T21:13:40.130Z,13.77
2018-05-06T21:24:53.926Z,13.77
2018-05-06T21:27:21.438Z,13.78
2018-05-06T21:29:49.111Z,13.76
2018-05-06T21:38:46.173Z,13.75
2018-05-06T21:41:13.714Z,13.74
2018-05-06T21:43:41.214Z,13.72
2018-05-06T21:46:08.806Z,13.71
2018-05-06T21:48:37.297Z,13.71
2018-05-06T21:53:58.339Z,13.67
2018-05-06T21:59:18.434Z,13.57
2018-05-06T22:01:45.951Z,13.56
2018-05-06T22:04:13.619Z,13.57
2018-05-06T22:15:18.838Z,13.52
2018-05-06T22:17:46.359Z,13.51
2018-05-06T22:20:13.952Z,13.49
2018-05-06T22:22:41.610Z,13.48
2018-05-06T22:39:35.843Z,13.33
2018-05-06T22:42:03.458Z,13.29
2018-05-06T22:44:31.039Z,13.27
2018-05-06T22:47:01.969Z,13.23
2018-05-06T22:50:04.849Z,13.21
2018-05-06T22:52:32.354Z,13.18
2018-05-06T22:54:59.958Z,13.17
2018-05-06T22:57:27.502Z,13.16
2018-05-06T22:59:55.123Z,13.15
2018-05-06T23:11:18.514Z,13.01
2018-05-06T23:13:46.034Z,12.99
2018-05-06T23:16:13.822Z,12.97
2018-05-06T23:24:45.675Z,12.80
2018-05-06T23:29:51.389Z,12.76
2018-05-06T23:32:18.894Z,12.75
2018-05-06T23:34:46.390Z,12.73
